Time;durP1;ratioP1;P1;durP2;ratioP2;P2;SDS_P1;SDS_P2;PMS_P1;PMS_P2;Temp;Humidity;BMP_temperature;BMP_pressure;BME280_temperature;BME280_humidity;BME280_pressure;Samples;Min_cycle;Max_cycle;Signal;HPM_P1;HPM_P2
2023/04/21 00:00:47;;;;;;;30.52;22.10;;;;;;;;;;4982667;28;20241;-63
2023/04/21 00:03:15;;;;;;;31.77;21.38;;;;;;;;;;4992515;28;20198;-63
2023/04/21 00:05:43;;;;;;;32.40;22.80;;;;;;;;;;4992113;28;20211;-63
2023/04/21 00:08:11;;;;;;;29.65;19.65;;;;;;;;;;4993343;28;20211;-63
2023/04/21 00:10:41;;;;;;;35.38;19.48;;;;;;;;;;4992926;28;20213;-64
2023/04/21 00:13:09;;;;;;;27.27;19.90;;;;;;;;;;4993316;28;20206;-63
2023/04/21 00:15:37;;;;;;;25.92;19.50;;;;;;;;;;4992750;28;20213;-64
2023/04/21 00:18:06;;;;;;;28.25;19.13;;;;;;;;;;4993545;28;20206;-63
2023/04/21 00:20:34;;;;;;;28.50;20.42;;;;;;;;;;4992610;28;20814;-63
2023/04/21 00:23:02;;;;;;;28.95;21.85;;;;;;;;;;4993076;28;20222;-63
2023/04/21 00:25:30;;;;;;;30.95;22.70;;;;;;;;;;4992746;28;20556;-63
2023/04/21 00:28:00;;;;;;;35.60;21.80;;;;;;;;;;4993454;28;20566;-63
2023/04/21 00:30:28;;;;;;;33.60;21.45;;;;;;;;;;4993035;28;20198;-63
2023/04/21 00:32:56;;;;;;;35.97;23.48;;;;;;;;;;4992908;28;20213;-63
2023/04/21 00:35:24;;;;;;;33.05;23.80;;;;;;;;;;4993124;28;20210;-65
2023/04/21 00:37:53;;;;;;;32.75;23.30;;;;;;;;;;4992469;28;20209;-64
2023/04/21 00:40:21;;;;;;;33.28;22.60;;;;;;;;;;4997279;28;20593;-62
2023/04/21 00:42:49;;;;;;;31.00;22.80;;;;;;;;;;4997464;28;20203;-62
2023/04/21 00:45:18;;;;;;;36.17;24.30;;;;;;;;;;4997619;28;20202;-62
2023/04/21 00:47:47;;;;;;;31.30;23.50;;;;;;;;;;4997133;28;20209;-63
2023/04/21 00:50:15;;;;;;;33.97;23.05;;;;;;;;;;4997345;28;20705;-62
2023/04/21 00:52:45;;;;;;;34.45;24.08;;;;;;;;;;4996783;28;20365;-62
2023/04/21 00:55:14;;;;;;;35.67;25.55;;;;;;;;;;4995550;28;20249;-63
2023/04/21 00:57:44;;;;;;;33.88;23.05;;;;;;;;;;4995333;28;20593;-62
2023/04/21 01:00:13;;;;;;;32.45;23.50;;;;;;;;;;4992410;28;20235;-62
2023/04/21 01:02:44;;;;;;;36.72;24.15;;;;;;;;;;4983640;28;20320;-61
2023/04/21 01:05:12;;;;;;;39.20;25.70;;;;;;;;;;4986725;28;20266;-61
2023/04/21 01:07:40;;;;;;;33.78;22.60;;;;;;;;;;5005935;28;20207;-60
2023/04/21 01:10:09;;;;;;;35.80;24.92;;;;;;;;;;5005267;28;20281;-60
2023/04/21 01:12:43;;;;;;;34.53;23.65;;;;;;;;;;5005406;28;20258;-61
2023/04/21 01:15:12;;;;;;;32.92;23.55;;;;;;;;;;5005400;28;21148;-62
2023/04/21 01:17:40;;;;;;;32.70;23.45;;;;;;;;;;5004925;28;20263;-62
2023/04/21 01:20:12;;;;;;;34.00;24.08;;;;;;;;;;5004757;28;20315;-61
2023/04/21 01:22:43;;;;;;;34.83;23.67;;;;;;;;;;5004930;28;20619;-61
2023/04/21 01:25:11;;;;;;;42.15;26.45;;;;;;;;;;5004635;28;20269;-61
2023/04/21 01:27:39;;;;;;;34.47;23.77;;;;;;;;;;5003418;28;20291;-62
2023/04/21 01:30:08;;;;;;;37.35;25.52;;;;;;;;;;5002959;28;20254;-61
2023/04/21 01:32:37;;;;;;;36.30;24.42;;;;;;;;;;5004839;28;20258;-62
2023/04/21 01:35:05;;;;;;;33.67;25.48;;;;;;;;;;5005080;28;20365;-62
2023/04/21 01:37:34;;;;;;;42.20;26.60;;;;;;;;;;5006289;28;20951;-62
2023/04/21 01:40:05;;;;;;;42.13;25.33;;;;;;;;;;5003448;28;20301;-63
2023/04/21 01:42:35;;;;;;;37.42;24.48;;;;;;;;;;5006421;28;20285;-63
2023/04/21 01:45:03;;;;;;;41.45;26.95;;;;;;;;;;5004827;28;20271;-62
2023/04/21 01:47:32;;;;;;;45.15;26.15;;;;;;;;;;5005822;28;20286;-61
2023/04/21 01:50:01;;;;;;;41.00;25.80;;;;;;;;;;5003562;28;20267;-62
2023/04/21 01:52:29;;;;;;;39.72;24.17;;;;;;;;;;5005907;28;20285;-62
2023/04/21 01:54:57;;;;;;;36.40;25.23;;;;;;;;;;5002912;28;20708;-62
2023/04/21 01:57:27;;;;;;;37.25;24.83;;;;;;;;;;5005363;28;20258;-62
2023/04/21 01:59:55;;;;;;;34.35;25.83;;;;;;;;;;5002925;28;20286;-61
2023/04/21 02:02:23;;;;;;;34.20;23.45;;;;;;;;;;5002725;28;20277;-63
2023/04/21 02:04:52;;;;;;;38.90;25.05;;;;;;;;;;5002930;28;20262;-64
2023/04/21 02:07:22;;;;;;;39.08;26.00;;;;;;;;;;5005871;28;20290;-64
2023/04/21 02:09:50;;;;;;;36.67;24.63;;;;;;;;;;5004939;28;20705;-62
2023/04/21 02:12:18;;;;;;;37.13;24.73;;;;;;;;;;4992860;28;20264;-61
2023/04/21 02:14:48;;;;;;;41.65;25.77;;;;;;;;;;4984880;28;20258;-61
2023/04/21 02:17:16;;;;;;;46.13;27.60;;;;;;;;;;4983889;28;20631;-62
2023/04/21 02:19:46;;;;;;;42.88;26.25;;;;;;;;;;4983870;28;20286;-62
2023/04/21 02:22:15;;;;;;;39.78;25.35;;;;;;;;;;5000897;28;20270;-62
2023/04/21 02:24:43;;;;;;;42.63;26.00;;;;;;;;;;4999639;28;20258;-64
2023/04/21 02:27:13;;;;;;;42.78;27.20;;;;;;;;;;5004170;28;20266;-62
2023/04/21 02:29:41;;;;;;;48.40;28.23;;;;;;;;;;5003557;28;20372;-63
2023/04/21 02:32:11;;;;;;;46.00;29.58;;;;;;;;;;5003835;28;20599;-61
2023/04/21 02:34:40;;;;;;;44.20;29.13;;;;;;;;;;5003620;28;20258;-61
2023/04/21 02:37:09;;;;;;;45.20;28.15;;;;;;;;;;5005264;28;20289;-61
2023/04/21 02:39:37;;;;;;;47.00;29.83;;;;;;;;;;5004633;28;20254;-62
2023/04/21 02:42:07;;;;;;;49.28;30.83;;;;;;;;;;5004658;28;20261;-63
2023/04/21 02:44:37;;;;;;;51.33;31.17;;;;;;;;;;5003256;28;20281;-61
2023/04/21 02:47:05;;;;;;;51.63;30.98;;;;;;;;;;5004186;28;20246;-63
2023/04/21 02:49:35;;;;;;;49.10;31.30;;;;;;;;;;5003924;28;20262;-61
2023/04/21 02:52:03;;;;;;;53.80;29.90;;;;;;;;;;5003346;28;20285;-62
2023/04/21 02:54:31;;;;;;;47.53;29.80;;;;;;;;;;5003787;28;20286;-62
2023/04/21 02:57:00;;;;;;;44.53;29.85;;;;;;;;;;5012543;28;20293;-61
2023/04/21 02:59:28;;;;;;;46.63;29.10;;;;;;;;;;5021579;28;20291;-62
2023/04/21 03:01:56;;;;;;;44.78;28.45;;;;;;;;;;5002081;28;20301;-62
2023/04/21 03:04:25;;;;;;;51.75;29.20;;;;;;;;;;5003026;28;20283;-63
2023/04/21 03:06:55;;;;;;;48.97;29.08;;;;;;;;;;5003230;28;20282;-61
2023/04/21 03:09:23;;;;;;;43.53;26.00;;;;;;;;;;5002530;28;20277;-64
2023/04/21 03:11:51;;;;;;;44.05;27.50;;;;;;;;;;5002057;28;20263;-61
2023/04/21 03:14:19;;;;;;;41.85;26.05;;;;;;;;;;5003461;28;20220;-61
2023/04/21 03:16:48;;;;;;;44.55;27.83;;;;;;;;;;4988936;28;20259;-61
2023/04/21 03:19:16;;;;;;;47.85;28.80;;;;;;;;;;4984315;28;20288;-61
2023/04/21 03:21:45;;;;;;;47.83;27.77;;;;;;;;;;4983313;28;20307;-62
2023/04/21 03:24:14;;;;;;;40.60;26.13;;;;;;;;;;4983668;28;20268;-61
2023/04/21 03:26:42;;;;;;;49.40;27.77;;;;;;;;;;4982788;28;20317;-63
2023/04/21 03:29:11;;;;;;;46.42;27.75;;;;;;;;;;4992410;28;20254;-63
2023/04/21 03:31:39;;;;;;;45.50;26.23;;;;;;;;;;5002770;28;20258;-61
2023/04/21 03:34:08;;;;;;;80.75;27.17;;;;;;;;;;5002569;28;20258;-61
2023/04/21 03:36:36;;;;;;;104.18;25.48;;;;;;;;;;5002927;28;20289;-63
2023/04/21 03:39:05;;;;;;;157.15;29.42;;;;;;;;;;5001775;28;20368;-61
2023/04/21 03:41:35;;;;;;;128.77;27.73;;;;;;;;;;5002179;28;20656;-62
2023/04/21 03:44:05;;;;;;;151.32;31.65;;;;;;;;;;5000890;28;20254;-63
2023/04/21 03:46:34;;;;;;;145.82;29.65;;;;;;;;;;5001952;28;20749;-61
2023/04/21 03:49:02;;;;;;;168.48;27.40;;;;;;;;;;5002216;28;20210;-63
2023/04/21 03:51:32;;;;;;;145.27;26.38;;;;;;;;;;5003112;28;20258;-61
2023/04/21 03:54:00;;;;;;;90.05;25.58;;;;;;;;;;5002356;28;20335;-61
2023/04/21 03:56:28;;;;;;;114.40;27.67;;;;;;;;;;5002190;28;20282;-62
2023/04/21 03:58:58;;;;;;;54.97;24.05;;;;;;;;;;5000745;28;20733;-62
2023/04/21 04:01:26;;;;;;;54.35;24.50;;;;;;;;;;5000863;28;20294;-62
2023/04/21 04:03:54;;;;;;;47.40;24.65;;;;;;;;;;5001181;28;20281;-63
2023/04/21 04:06:22;;;;;;;46.72;22.58;;;;;;;;;;4981855;28;20258;-63
2023/04/21 04:08:51;;;;;;;102.88;24.52;;;;;;;;;;4982765;28;20289;-63
2023/04/21 04:11:19;;;;;;;59.35;23.38;;;;;;;;;;4983087;28;20720;-61
2023/04/21 04:13:47;;;;;;;75.35;23.33;;;;;;;;;;4983607;28;20358;-63
2023/04/21 04:16:17;;;;;;;49.92;22.85;;;;;;;;;;4996505;28;20258;-62
2023/04/21 04:18:45;;;;;;;57.70;21.25;;;;;;;;;;5001493;28;20356;-61
2023/04/21 04:21:14;;;;;;;68.85;21.92;;;;;;;;;;5001519;28;20564;-63
2023/04/21 04:23:43;;;;;;;127.47;24.42;;;;;;;;;;5002576;28;20261;-63
2023/04/21 04:26:11;;;;;;;106.15;23.45;;;;;;;;;;4998215;28;20258;-62
2023/04/21 04:28:40;;;;;;;94.13;23.88;;;;;;;;;;5002012;28;20213;-62
2023/04/21 04:31:08;;;;;;;101.03;23.80;;;;;;;;;;4989643;28;20247;-62
2023/04/21 04:33:37;;;;;;;110.15;22.95;;;;;;;;;;4982460;28;20338;-61
2023/04/21 04:36:06;;;;;;;153.70;24.10;;;;;;;;;;4982463;28;20263;-62
2023/04/21 04:38:36;;;;;;;144.15;26.05;;;;;;;;;;4983665;28;20263;-61
2023/04/21 04:41:05;;;;;;;104.05;23.40;;;;;;;;;;4997544;28;20309;-63
2023/04/21 04:43:35;;;;;;;111.82;24.85;;;;;;;;;;5001210;28;20290;-61
2023/04/21 04:46:04;;;;;;;84.60;22.80;;;;;;;;;;5001748;28;20266;-62
2023/04/21 04:48:32;;;;;;;58.33;23.73;;;;;;;;;;5001600;28;20281;-62
2023/04/21 04:51:02;;;;;;;133.15;27.52;;;;;;;;;;5001828;28;20745;-61
2023/04/21 04:53:30;;;;;;;90.28;23.50;;;;;;;;;;5001528;28;20306;-62
2023/04/21 04:56:00;;;;;;;67.57;22.65;;;;;;;;;;5001498;28;20273;-61
2023/04/21 04:58:28;;;;;;;99.60;23.17;;;;;;;;;;5002623;28;20277;-62
2023/04/21 05:00:59;;;;;;;66.68;22.88;;;;;;;;;;5000737;28;20792;-62
2023/04/21 05:03:27;;;;;;;118.82;24.05;;;;;;;;;;5001631;28;20298;-62
2023/04/21 05:05:56;;;;;;;79.85;24.88;;;;;;;;;;5001569;28;20289;-62
2023/04/21 05:08:25;;;;;;;85.38;24.60;;;;;;;;;;5002658;28;20282;-61
2023/04/21 05:10:54;;;;;;;73.93;25.40;;;;;;;;;;5002705;28;20254;-63
2023/04/21 05:13:22;;;;;;;80.38;26.80;;;;;;;;;;5002372;28;20272;-65
2023/04/21 05:15:50;;;;;;;73.55;26.88;;;;;;;;;;5002560;28;20260;-62
2023/04/21 05:18:18;;;;;;;69.72;29.60;;;;;;;;;;5002331;28;20263;-62
2023/04/21 05:20:46;;;;;;;83.80;25.25;;;;;;;;;;5003945;28;20301;-62
2023/04/21 05:23:15;;;;;;;58.58;22.77;;;;;;;;;;5003693;28;20258;-60
2023/04/21 05:25:45;;;;;;;74.30;23.20;;;;;;;;;;5004802;28;20281;-61
2023/04/21 05:28:13;;;;;;;68.18;22.40;;;;;;;;;;5006862;28;20294;-61
2023/04/21 05:30:41;;;;;;;71.18;26.90;;;;;;;;;;5003598;28;20807;-64
2023/04/21 05:33:10;;;;;;;107.43;23.48;;;;;;;;;;5006368;28;20246;-61
2023/04/21 05:35:38;;;;;;;74.63;23.77;;;;;;;;;;5005760;28;20333;-63
2023/04/21 05:38:07;;;;;;;68.65;20.35;;;;;;;;;;5006670;28;20251;-63
2023/04/21 05:40:35;;;;;;;66.53;23.85;;;;;;;;;;5006414;28;20258;-62
2023/04/21 05:43:04;;;;;;;63.28;22.50;;;;;;;;;;5004913;28;20299;-62
2023/04/21 05:45:32;;;;;;;98.40;24.08;;;;;;;;;;5002707;28;20271;-62
2023/04/21 05:48:01;;;;;;;67.90;23.17;;;;;;;;;;5006133;28;20296;-61
2023/04/21 05:50:32;;;;;;;78.78;23.50;;;;;;;;;;5006380;28;20286;-61
2023/04/21 05:53:01;;;;;;;76.20;27.10;;;;;;;;;;5005424;28;20823;-61
2023/04/21 05:55:29;;;;;;;53.33;24.88;;;;;;;;;;5010447;28;20235;-61
2023/04/21 05:57:57;;;;;;;101.65;24.13;;;;;;;;;;5001254;28;20745;-61
2023/04/21 06:00:27;;;;;;;44.92;21.38;;;;;;;;;;5002962;28;20602;-61
2023/04/21 06:02:55;;;;;;;66.22;20.83;;;;;;;;;;5000454;28;20686;-64
2023/04/21 06:05:23;;;;;;;68.25;21.45;;;;;;;;;;4999335;28;20266;-64
2023/04/21 06:07:51;;;;;;;71.70;23.52;;;;;;;;;;4998557;28;20278;-64
2023/04/21 06:10:20;;;;;;;45.78;22.13;;;;;;;;;;4999086;28;20282;-62
2023/04/21 06:12:48;;;;;;;55.03;22.42;;;;;;;;;;4999964;28;20328;-60
2023/04/21 06:15:16;;;;;;;45.58;23.50;;;;;;;;;;4998337;28;20282;-60
2023/04/21 06:17:46;;;;;;;54.97;23.85;;;;;;;;;;5000213;28;20286;-61
2023/04/21 06:20:16;;;;;;;62.85;23.85;;;;;;;;;;5001209;28;20374;-62
2023/04/21 06:22:44;;;;;;;59.35;24.40;;;;;;;;;;5000877;28;20344;-61
2023/04/21 06:25:13;;;;;;;49.63;25.15;;;;;;;;;;4999686;28;20266;-60
2023/04/21 06:27:41;;;;;;;62.08;24.98;;;;;;;;;;4981109;28;20302;-61
2023/04/21 06:30:09;;;;;;;49.90;24.75;;;;;;;;;;5000199;28;20258;-61
2023/04/21 06:32:37;;;;;;;43.42;24.27;;;;;;;;;;5003789;28;20713;-62
2023/04/21 06:35:08;;;;;;;73.70;24.48;;;;;;;;;;5002723;28;20255;-63
2023/04/21 06:37:36;;;;;;;60.00;23.55;;;;;;;;;;4999177;28;20270;-61
2023/04/21 06:40:04;;;;;;;49.10;24.75;;;;;;;;;;5002536;28;20290;-61
2023/04/21 06:42:32;;;;;;;38.40;23.60;;;;;;;;;;5006726;28;20708;-63
2023/04/21 06:45:01;;;;;;;40.10;24.02;;;;;;;;;;5003194;28;20266;-62
2023/04/21 06:47:29;;;;;;;41.97;24.98;;;;;;;;;;5002325;28;20286;-61
2023/04/21 06:49:58;;;;;;;41.10;22.50;;;;;;;;;;5001207;28;20278;-61
2023/04/21 06:52:27;;;;;;;49.47;23.30;;;;;;;;;;4999913;28;20285;-61
2023/04/21 06:54:55;;;;;;;38.28;24.33;;;;;;;;;;4998124;28;20289;-62
2023/04/21 06:57:24;;;;;;;48.55;25.08;;;;;;;;;;5001405;28;20281;-61
2023/04/21 06:59:52;;;;;;;40.05;22.70;;;;;;;;;;5004254;28;20282;-66
2023/04/21 07:02:20;;;;;;;35.78;20.90;;;;;;;;;;5002065;28;20298;-61
2023/04/21 07:04:48;;;;;;;33.10;21.60;;;;;;;;;;5000260;28;20290;-60
2023/04/21 07:07:17;;;;;;;33.78;21.67;;;;;;;;;;4998945;28;20291;-60
2023/04/21 07:09:47;;;;;;;32.28;21.35;;;;;;;;;;5000293;28;20282;-61
2023/04/21 07:12:15;;;;;;;32.03;20.63;;;;;;;;;;5001112;28;20246;-61
2023/04/21 07:14:43;;;;;;;29.92;19.73;;;;;;;;;;5005153;28;20270;-61
2023/04/21 07:17:11;;;;;;;30.92;21.27;;;;;;;;;;5004264;28;20286;-62
2023/04/21 07:19:40;;;;;;;32.05;20.77;;;;;;;;;;5002730;28;20274;-62
2023/04/21 07:22:08;;;;;;;28.40;20.50;;;;;;;;;;5001754;28;20305;-60
2023/04/21 07:24:36;;;;;;;31.25;21.85;;;;;;;;;;5004129;28;20681;-61
2023/04/21 07:27:06;;;;;;;27.63;20.30;;;;;;;;;;5001625;28;20286;-61
2023/04/21 07:29:34;;;;;;;26.45;20.10;;;;;;;;;;5001406;28;20258;-61
2023/04/21 07:32:02;;;;;;;25.38;18.75;;;;;;;;;;4997863;28;20289;-61
2023/04/21 07:34:30;;;;;;;25.02;19.60;;;;;;;;;;5000256;28;20270;-61
2023/04/21 07:36:59;;;;;;;25.38;18.38;;;;;;;;;;4999627;28;20263;-63
2023/04/21 07:39:27;;;;;;;27.00;19.50;;;;;;;;;;4995964;28;20357;-60
2023/04/21 07:41:55;;;;;;;25.55;18.30;;;;;;;;;;5000806;28;20285;-65
2023/04/21 07:44:25;;;;;;;21.42;18.13;;;;;;;;;;4998396;28;20274;-60
2023/04/21 07:46:53;;;;;;;21.38;16.45;;;;;;;;;;4999982;28;20254;-60
2023/04/21 07:49:21;;;;;;;24.23;18.33;;;;;;;;;;5000239;28;20262;-61
2023/04/21 07:51:49;;;;;;;21.63;17.75;;;;;;;;;;5000384;28;20283;-62
2023/04/21 07:54:17;;;;;;;22.35;16.90;;;;;;;;;;5000115;28;20289;-62
2023/04/21 07:56:46;;;;;;;27.55;20.98;;;;;;;;;;5000540;28;20282;-63
2023/04/21 07:59:14;;;;;;;21.40;16.98;;;;;;;;;;5000809;28;20309;-60
2023/04/21 08:01:43;;;;;;;21.80;17.40;;;;;;;;;;4999178;28;20274;-61
2023/04/21 08:04:12;;;;;;;24.23;19.60;;;;;;;;;;4997436;28;20322;-62
2023/04/21 08:06:40;;;;;;;23.75;21.05;;;;;;;;;;4999783;28;20285;-60
2023/04/21 08:09:08;;;;;;;24.98;18.27;;;;;;;;;;4999367;28;20631;-64
2023/04/21 08:11:37;;;;;;;25.02;18.75;;;;;;;;;;4998490;28;20385;-60
2023/04/21 08:14:08;;;;;;;23.42;18.00;;;;;;;;;;4997659;28;20615;-61
2023/04/21 08:16:36;;;;;;;24.08;19.60;;;;;;;;;;4998273;28;20281;-61
2023/04/21 08:19:06;;;;;;;20.67;17.00;;;;;;;;;;4997305;28;20281;-61
2023/04/21 08:21:34;;;;;;;22.33;17.73;;;;;;;;;;5000029;28;20278;-61
2023/04/21 08:24:03;;;;;;;22.17;18.52;;;;;;;;;;4999335;28;20273;-61
2023/04/21 08:26:32;;;;;;;22.70;17.27;;;;;;;;;;4999308;28;20693;-62
2023/04/21 08:29:00;;;;;;;23.88;18.30;;;;;;;;;;4997882;28;20289;-60
2023/04/21 08:31:29;;;;;;;23.02;18.50;;;;;;;;;;5000158;28;20258;-62
2023/04/21 08:33:57;;;;;;;21.83;18.45;;;;;;;;;;4998356;28;20273;-63
2023/04/21 08:36:26;;;;;;;23.00;19.10;;;;;;;;;;4999039;28;20250;-62
2023/04/21 08:38:55;;;;;;;20.52;17.92;;;;;;;;;;4997930;28;20250;-62
2023/04/21 08:41:23;;;;;;;21.63;18.55;;;;;;;;;;4996502;28;20705;-62
2023/04/21 08:43:51;;;;;;;21.10;17.15;;;;;;;;;;4998691;28;20301;-61
2023/04/21 08:46:20;;;;;;;20.58;17.98;;;;;;;;;;4998566;28;20273;-64
2023/04/21 08:48:48;;;;;;;23.33;19.60;;;;;;;;;;4998774;28;20294;-62
2023/04/21 08:51:21;;;;;;;23.05;17.48;;;;;;;;;;4999012;28;20281;-64
2023/04/21 08:53:51;;;;;;;20.88;17.40;;;;;;;;;;4998213;28;20266;-63
2023/04/21 08:56:19;;;;;;;18.13;16.02;;;;;;;;;;4996573;28;20721;-62
2023/04/21 08:58:47;;;;;;;17.63;14.75;;;;;;;;;;4994333;28;20203;-63
2023/04/21 09:01:15;;;;;;;22.02;16.48;;;;;;;;;;4996943;28;20193;-61
2023/04/21 09:03:43;;;;;;;19.58;17.48;;;;;;;;;;5000139;28;20230;-64
2023/04/21 09:06:12;;;;;;;18.77;15.75;;;;;;;;;;5000998;28;20341;-64
2023/04/21 09:08:43;;;;;;;17.10;15.40;;;;;;;;;;5001397;28;20289;-62
2023/04/21 09:11:15;;;;;;;16.13;14.35;;;;;;;;;;5003146;28;20274;-64
2023/04/21 09:13:43;;;;;;;17.10;13.90;;;;;;;;;;5002892;28;20268;-64
2023/04/21 09:16:19;;;;;;;17.05;14.45;;;;;;;;;;5001720;28;20285;-61
2023/04/21 09:18:47;;;;;;;15.75;13.15;;;;;;;;;;5000056;28;20293;-62
2023/04/21 09:21:16;;;;;;;18.38;14.63;;;;;;;;;;4991326;28;20297;-63
2023/04/21 09:23:45;;;;;;;16.13;14.43;;;;;;;;;;5000493;28;20220;-61
2023/04/21 09:26:13;;;;;;;16.73;14.35;;;;;;;;;;5000811;28;20301;-61
2023/04/21 09:28:43;;;;;;;14.80;13.30;;;;;;;;;;5001110;28;20313;-61
2023/04/21 09:31:16;;;;;;;13.98;12.13;;;;;;;;;;4999142;28;20278;-60
2023/04/21 09:33:47;;;;;;;14.18;12.50;;;;;;;;;;4998827;28;20195;-62
2023/04/21 09:36:20;;;;;;;15.18;13.13;;;;;;;;;;4998490;28;20270;-62
2023/04/21 09:38:50;;;;;;;15.88;14.07;;;;;;;;;;4998466;28;20198;-61
2023/04/21 09:41:19;;;;;;;13.20;11.90;;;;;;;;;;4991115;28;20193;-62
2023/04/21 09:43:48;;;;;;;12.65;11.32;;;;;;;;;;5003598;28;20728;-61
2023/04/21 09:46:17;;;;;;;12.38;10.75;;;;;;;;;;5004334;28;20326;-61
2023/04/21 09:48:45;;;;;;;11.57;10.27;;;;;;;;;;5004360;28;20829;-62
2023/04/21 09:51:14;;;;;;;10.20;9.20;;;;;;;;;;5002387;28;20281;-62
2023/04/21 09:53:43;;;;;;;8.93;8.07;;;;;;;;;;4999966;28;20683;-64
2023/04/21 09:56:12;;;;;;;11.40;10.10;;;;;;;;;;4996752;28;21617;-63
2023/04/21 09:58:42;;;;;;;14.50;11.20;;;;;;;;;;5001544;28;21252;-64
2023/04/21 10:01:12;;;;;;;11.05;10.05;;;;;;;;;;5002318;28;20273;-64
2023/04/21 10:03:41;;;;;;;9.23;8.20;;;;;;;;;;5001210;28;20285;-63
2023/04/21 10:06:09;;;;;;;10.00;8.90;;;;;;;;;;5001384;28;20690;-63
2023/04/21 10:08:37;;;;;;;9.73;8.80;;;;;;;;;;5003537;28;20616;-62
2023/04/21 10:11:06;;;;;;;9.90;9.00;;;;;;;;;;5002109;28;20697;-64
2023/04/21 10:13:34;;;;;;;9.60;8.70;;;;;;;;;;5003388;28;20648;-62
2023/04/21 10:16:03;;;;;;;12.63;10.05;;;;;;;;;;5003132;28;20700;-65
2023/04/21 10:18:35;;;;;;;9.73;8.90;;;;;;;;;;5003461;28;20277;-63
2023/04/21 10:21:05;;;;;;;10.23;9.23;;;;;;;;;;4997294;28;21108;-64
2023/04/21 10:23:36;;;;;;;9.53;8.63;;;;;;;;;;4998890;28;20745;-64
2023/04/21 10:26:06;;;;;;;9.83;8.83;;;;;;;;;;5002462;28;20689;-63
2023/04/21 10:28:45;;;;;;;10.87;9.63;;;;;;;;;;5001716;28;20796;-62
2023/04/21 10:31:25;;;;;;;15.60;9.90;;;;;;;;;;5001952;28;20640;-63
2023/04/21 10:34:09;;;;;;;10.83;9.73;;;;;;;;;;5001593;28;20689;-62
2023/04/21 10:36:47;;;;;;;10.97;9.87;;;;;;;;;;4999442;28;20738;-62
2023/04/21 10:39:26;;;;;;;9.27;8.43;;;;;;;;;;5000449;28;20647;-62
2023/04/21 10:41:57;;;;;;;11.00;9.90;;;;;;;;;;5000199;28;20665;-62
2023/04/21 10:44:25;;;;;;;12.33;9.50;;;;;;;;;;5000490;28;20732;-62
2023/04/21 10:46:55;;;;;;;10.90;9.80;;;;;;;;;;5000348;28;20691;-61
2023/04/21 10:49:24;;;;;;;11.33;10.30;;;;;;;;;;4997344;28;21046;-62
2023/04/21 10:52:05;;;;;;;13.13;11.83;;;;;;;;;;4998035;28;20680;-64
2023/04/21 10:54:40;;;;;;;11.90;10.73;;;;;;;;;;4996955;28;20723;-61
2023/04/21 10:57:10;;;;;;;11.40;10.20;;;;;;;;;;4995525;28;20671;-63
2023/04/21 10:59:38;;;;;;;10.60;9.60;;;;;;;;;;4998134;28;20748;-62
2023/04/21 11:02:07;;;;;;;10.57;9.57;;;;;;;;;;4995774;28;20600;-63
2023/04/21 11:04:35;;;;;;;10.23;9.23;;;;;;;;;;4997497;28;20798;-63
2023/04/21 11:07:08;;;;;;;10.13;9.23;;;;;;;;;;4996874;28;20657;-62
2023/04/21 11:09:37;;;;;;;9.07;8.37;;;;;;;;;;4998399;28;20679;-61
2023/04/21 11:12:07;;;;;;;10.20;9.40;;;;;;;;;;4996962;28;21250;-63
2023/04/21 11:14:36;;;;;;;10.10;9.40;;;;;;;;;;4996381;28;20695;-63
2023/04/21 11:17:04;;;;;;;11.33;10.53;;;;;;;;;;4996749;28;20729;-62
2023/04/21 11:19:32;;;;;;;13.30;12.20;;;;;;;;;;4996003;28;20728;-64
2023/04/21 11:22:02;;;;;;;14.87;13.67;;;;;;;;;;4997972;28;20653;-63
2023/04/21 11:24:32;;;;;;;13.50;12.50;;;;;;;;;;4995286;28;20661;-63
2023/04/21 11:27:00;;;;;;;12.13;11.40;;;;;;;;;;4998098;28;20728;-63
2023/04/21 11:29:29;;;;;;;11.37;10.77;;;;;;;;;;4998483;28;20720;-63
2023/04/21 11:31:58;;;;;;;11.07;10.47;;;;;;;;;;4998083;28;20721;-62
2023/04/21 11:34:27;;;;;;;12.70;11.90;;;;;;;;;;4998674;28;20748;-63
2023/04/21 11:36:55;;;;;;;12.50;11.60;;;;;;;;;;4998669;28;20713;-63
2023/04/21 11:39:23;;;;;;;10.13;9.73;;;;;;;;;;4999728;28;20725;-63
2023/04/21 11:41:53;;;;;;;9.50;9.10;;;;;;;;;;5000051;28;20724;-61
2023/04/21 11:44:32;;;;;;;10.30;9.67;;;;;;;;;;4999613;28;20622;-63
2023/04/21 11:47:00;;;;;;;9.40;9.00;;;;;;;;;;4999390;28;20697;-63
2023/04/21 11:49:29;;;;;;;11.00;10.40;;;;;;;;;;4999787;28;20732;-62
2023/04/21 11:51:57;;;;;;;10.60;10.10;;;;;;;;;;4998764;28;20733;-64
2023/04/21 11:54:25;;;;;;;11.07;10.50;;;;;;;;;;4998870;28;20790;-63
2023/04/21 11:56:55;;;;;;;11.10;10.60;;;;;;;;;;4995811;28;21078;-62
2023/04/21 11:59:25;;;;;;;11.27;10.77;;;;;;;;;;4997054;28;21103;-63
2023/04/21 12:01:54;;;;;;;10.90;10.30;;;;;;;;;;4997855;28;20697;-64
2023/04/21 12:04:23;;;;;;;12.10;11.50;;;;;;;;;;4997316;28;20701;-63
2023/04/21 12:06:57;;;;;;;11.60;11.00;;;;;;;;;;4996172;28;21188;-64
2023/04/21 12:09:25;;;;;;;13.47;12.67;;;;;;;;;;4996559;28;20681;-64
2023/04/21 12:11:56;;;;;;;13.47;12.70;;;;;;;;;;4996901;28;20721;-63
2023/04/21 12:14:25;;;;;;;12.63;12.03;;;;;;;;;;4997713;28;20680;-63
2023/04/21 12:16:54;;;;;;;14.17;13.23;;;;;;;;;;4996594;28;21298;-63
2023/04/21 12:19:25;;;;;;;14.40;13.57;;;;;;;;;;4997639;28;20682;-63
2023/04/21 12:21:54;;;;;;;14.57;13.47;;;;;;;;;;4997204;28;21188;-64
2023/04/21 12:24:22;;;;;;;14.90;14.03;;;;;;;;;;4998531;28;20720;-65
2023/04/21 12:26:51;;;;;;;14.20;13.40;;;;;;;;;;4997949;28;20708;-63
2023/04/21 12:29:20;;;;;;;12.80;12.20;;;;;;;;;;4997482;28;20732;-63
2023/04/21 12:31:49;;;;;;;14.13;13.30;;;;;;;;;;4997237;28;20694;-63
2023/04/21 12:34:17;;;;;;;14.33;13.40;;;;;;;;;;4999144;28;20788;-63
2023/04/21 12:36:45;;;;;;;13.80;13.00;;;;;;;;;;5002697;28;20744;-66
2023/04/21 12:39:16;;;;;;;13.67;13.00;;;;;;;;;;4999325;28;20707;-64
2023/04/21 12:41:44;;;;;;;16.20;14.83;;;;;;;;;;4996341;28;20618;-63
2023/04/21 12:44:12;;;;;;;15.10;14.20;;;;;;;;;;4996460;28;20660;-63
2023/04/21 12:46:42;;;;;;;14.33;13.50;;;;;;;;;;5001827;28;21322;-62
2023/04/21 12:49:10;;;;;;;14.70;13.70;;;;;;;;;;4997594;28;20713;-63
2023/04/21 12:51:38;;;;;;;15.60;14.60;;;;;;;;;;4998867;28;20701;-63
2023/04/21 12:54:07;;;;;;;13.70;12.90;;;;;;;;;;4997712;28;20616;-64
2023/04/21 12:56:35;;;;;;;14.20;13.40;;;;;;;;;;5000291;28;22319;-62
2023/04/21 12:59:03;;;;;;;15.33;14.53;;;;;;;;;;4997499;28;20696;-64
2023/04/21 13:01:32;;;;;;;14.83;14.03;;;;;;;;;;5000259;28;20737;-62
2023/04/21 13:04:02;;;;;;;15.40;14.50;;;;;;;;;;5000480;28;20702;-63
2023/04/21 13:06:31;;;;;;;16.70;15.70;;;;;;;;;;5000344;28;20705;-64
2023/04/21 13:09:00;;;;;;;15.77;14.67;;;;;;;;;;4998025;28;20622;-63
2023/04/21 13:11:28;;;;;;;16.00;15.00;;;;;;;;;;4998547;28;20834;-63
2023/04/21 13:13:57;;;;;;;16.37;15.27;;;;;;;;;;4999792;28;20698;-64
2023/04/21 13:16:25;;;;;;;17.30;16.10;;;;;;;;;;5000548;28;20745;-62
2023/04/21 13:18:53;;;;;;;18.20;16.90;;;;;;;;;;5000245;28;20697;-62
2023/04/21 13:21:23;;;;;;;17.20;16.10;;;;;;;;;;5001022;28;20756;-66
2023/04/21 13:23:51;;;;;;;17.40;16.30;;;;;;;;;;5001139;28;20693;-64
2023/04/21 13:26:20;;;;;;;18.90;17.67;;;;;;;;;;4999722;28;20724;-65
2023/04/21 13:28:48;;;;;;;19.90;18.40;;;;;;;;;;4998673;28;20693;-64
2023/04/21 13:31:16;;;;;;;17.90;16.63;;;;;;;;;;5001220;28;20721;-62
2023/04/21 13:33:44;;;;;;;18.20;16.70;;;;;;;;;;5002535;28;20717;-63
2023/04/21 13:36:13;;;;;;;19.10;17.80;;;;;;;;;;5002422;28;20717;-63
2023/04/21 13:38:42;;;;;;;17.17;16.07;;;;;;;;;;5002440;28;21107;-64
2023/04/21 13:41:10;;;;;;;18.33;17.03;;;;;;;;;;5002227;28;20718;-62
2023/04/21 13:43:40;;;;;;;18.33;17.03;;;;;;;;;;5003357;28;20720;-62
2023/04/21 13:46:08;;;;;;;17.10;16.10;;;;;;;;;;5003141;28;20716;-63
2023/04/21 13:48:36;;;;;;;18.20;17.00;;;;;;;;;;5002291;28;20693;-62
2023/04/21 13:51:05;;;;;;;18.40;17.30;;;;;;;;;;4999421;28;20705;-64
2023/04/21 13:53:33;;;;;;;18.47;17.27;;;;;;;;;;5002503;28;20697;-62
2023/04/21 13:56:03;;;;;;;18.63;17.33;;;;;;;;;;5002563;28;20772;-62
2023/04/21 13:58:31;;;;;;;17.33;16.33;;;;;;;;;;5002282;28;20712;-62
2023/04/21 14:00:59;;;;;;;18.50;17.27;;;;;;;;;;4980044;28;20742;-63
2023/04/21 14:03:27;;;;;;;17.70;16.60;;;;;;;;;;4981682;28;20706;-63
2023/04/21 14:05:56;;;;;;;18.57;17.37;;;;;;;;;;4982921;28;20701;-63
2023/04/21 14:08:25;;;;;;;19.33;18.13;;;;;;;;;;4981906;28;21263;-63
2023/04/21 14:10:53;;;;;;;20.40;18.60;;;;;;;;;;4982371;28;20761;-62
2023/04/21 14:13:23;;;;;;;19.37;17.97;;;;;;;;;;4981393;28;20663;-62
2023/04/21 14:15:51;;;;;;;19.00;17.70;;;;;;;;;;4983633;28;20665;-62
2023/04/21 14:18:19;;;;;;;19.47;18.07;;;;;;;;;;4997769;28;20704;-62
2023/04/21 14:20:47;;;;;;;20.00;18.50;;;;;;;;;;4998086;28;20773;-62
2023/04/21 14:23:16;;;;;;;20.60;19.10;;;;;;;;;;4999737;28;20689;-64
2023/04/21 14:25:44;;;;;;;19.88;18.55;;;;;;;;;;4999505;28;20747;-62
2023/04/21 14:28:12;;;;;;;19.20;18.10;;;;;;;;;;4993132;28;20296;-64